Time;durP1;ratioP1;P1;durP2;ratioP2;P2;SDS_P1;SDS_P2;PMS_P1;PMS_P2;Temp;Humidity;BMP_temperature;BMP_pressure;BME280_temperature;BME280_humidity;BME280_pressure;Samples;Min_cycle;Max_cycle;Signal;HPM_P1;HPM_P2
2021/06/01 00:01:37;;;;;;;;;;;;;;;11.47;87.01;98829.73;1730035;82;20188;-79
2021/06/01 00:04:05;;;;;;;;;;;;;;;11.50;86.62;98830.49;1724086;82;20181;-79
2021/06/01 00:06:31;;;;;;;;;;;;;;;11.52;87.74;98835.66;1732357;83;20178;-80
2021/06/01 00:08:58;;;;;;;;;;;;;;;11.50;87.60;98824.45;1724044;83;20188;-79
2021/06/01 00:11:24;;;;;;;;;;;;;;;11.49;87.75;98824.88;1732237;83;20340;-80
2021/06/01 00:13:51;;;;;;;;;;;;;;;11.50;86.60;98829.66;1722809;83;20190;-79
2021/06/01 00:16:17;;;;;;;;;;;;;;;11.52;86.09;98829.99;1733868;81;20493;-78
2021/06/01 00:18:44;;;;;;;;;;;;;;;11.54;87.74;98828.64;1724572;82;20198;-80
2021/06/01 00:21:11;;;;;;;;;;;;;;;11.59;86.56;98824.58;1733865;83;20174;-79
2021/06/01 00:23:38;;;;;;;;;;;;;;;11.58;85.99;98824.16;1720248;83;20186;-79
2021/06/01 00:26:06;;;;;;;;;;;;;;;11.57;87.72;98822.02;1733876;82;20206;-80
2021/06/01 00:28:33;;;;;;;;;;;;;;;11.60;86.79;98824.53;1725582;82;20631;-79
2021/06/01 00:30:59;;;;;;;;;;;;;;;11.64;86.72;98822.22;1733745;83;20198;-78
2021/06/01 00:33:25;;;;;;;;;;;;;;;11.64;88.96;98822.22;1731743;83;20226;-80
2021/06/01 00:35:52;;;;;;;;;;;;;;;11.66;89.12;98819.58;1733704;83;20194;-80
2021/06/01 00:38:18;;;;;;;;;;;;;;;11.70;89.06;98829.83;1730809;83;21024;-80
2021/06/01 00:40:45;;;;;;;;;;;;;;;11.69;89.13;98827.27;1733894;83;20218;-80
2021/06/01 00:43:11;;;;;;;;;;;;;;;11.63;89.10;98828.78;1721829;83;20169;-79
2021/06/01 00:45:38;;;;;;;;;;;;;;;11.64;88.25;98818.75;1729513;83;20182;-80
2021/06/01 00:48:05;;;;;;;;;;;;;;;11.61;89.37;98822.31;1729265;82;20190;-81
2021/06/01 00:50:31;;;;;;;;;;;;;;;11.61;88.24;98822.31;1732290;83;20218;-79
2021/06/01 00:52:57;;;;;;;;;;;;;;;11.60;85.68;98819.33;1729807;83;20181;-79
2021/06/01 00:55:24;;;;;;;;;;;;;;;11.58;88.25;98813.32;1731439;82;20214;-81
2021/06/01 00:57:51;;;;;;;;;;;;;;;11.56;86.46;98817.73;1724975;83;20170;-78
2021/06/01 01:02:51;;;;;;;;;;;;;;;11.46;87.53;98815.01;1728917;83;20194;-79
2021/06/01 01:05:18;;;;;;;;;;;;;;;11.46;86.10;98821.52;1720081;83;20202;-79
2021/06/01 01:07:58;;;;;;;;;;;;;;;11.45;84.71;98819.83;1727218;83;20180;-79
2021/06/01 01:10:16;;;;;;;;;;;;;;;11.43;85.70;98820.33;1726456;82;20194;-80
2021/06/01 01:12:49;;;;;;;;;;;;;;;11.44;87.01;98822.89;1725283;82;20184;-79
2021/06/01 01:15:16;;;;;;;;;;;;;;;11.46;86.09;98824.98;1732117;81;20182;-79
2021/06/01 01:17:51;;;;;;;;;;;;;;;11.44;87.19;98812.48;1749129;81;20250;-82
2021/06/01 01:20:33;;;;;;;;;;;;;;;11.47;88.22;98818.02;1733858;83;20190;-81
2021/06/01 01:23:02;;;;;;;;;;;;;;;11.49;88.23;98820.13;1725643;82;20190;-80
2021/06/01 01:25:41;;;;;;;;;;;;;;;11.50;89.53;98814.88;1734001;82;20229;-81
2021/06/01 01:28:17;;;;;;;;;;;;;;;11.51;89.20;98812.66;1732940;83;20964;-80
2021/06/01 01:30:52;;;;;;;;;;;;;;;11.54;89.72;98805.22;1734110;83;20230;-80
2021/06/01 01:33:34;;;;;;;;;;;;;;;11.59;88.34;98807.20;1726238;82;20190;-78
2021/06/01 01:36:03;;;;;;;;;;;;;;;11.59;88.93;98805.89;1733835;83;20229;-78
2021/06/01 01:38:30;;;;;;;;;;;;;;;11.57;88.91;98793.84;1720103;82;20217;-80
2021/06/01 01:41:03;;;;;;;;;;;;;;;11.59;88.91;98802.45;1733763;83;20221;-81
2021/06/01 01:43:32;;;;;;;;;;;;;;;11.58;89.03;98805.51;1721368;82;20192;-80
2021/06/01 01:46:14;;;;;;;;;;;;;;;11.59;89.36;98798.08;1733210;83;20214;-82
2021/06/01 01:51:34;;;;;;;;;;;;;;;11.59;88.70;98789.43;1718194;83;20205;-80
2021/06/01 01:54:03;;;;;;;;;;;;;;;11.59;89.04;98793.33;1730929;82;20223;-79
2021/06/01 01:56:34;;;;;;;;;;;;;;;11.56;89.81;98783.88;1735499;82;20210;-82
2021/06/01 01:59:01;;;;;;;;;;;;;;;11.47;90.17;98791.53;1724143;83;20976;-79
2021/06/01 02:01:30;;;;;;;;;;;;;;;11.53;89.59;98785.27;1733539;82;20202;-81
2021/06/01 02:03:57;;;;;;;;;;;;;;;11.53;89.38;98787.42;1729027;83;20214;-80
2021/06/01 02:06:23;;;;;;;;;;;;;;;11.54;88.36;98792.20;1714512;83;20182;-80
2021/06/01 02:08:49;;;;;;;;;;;;;;;11.50;89.66;98795.81;1724956;83;20194;-79
2021/06/01 02:11:16;;;;;;;;;;;;;;;11.45;88.26;98791.20;1730586;83;20218;-81
2021/06/01 02:13:50;;;;;;;;;;;;;;;11.42;88.33;98792.58;1729514;82;20210;-80
2021/06/01 02:16:18;;;;;;;;;;;;;;;11.40;87.40;98799.59;1716574;81;20206;-80
2021/06/01 02:18:45;;;;;;;;;;;;;;;11.33;91.05;98791.99;1730263;83;20205;-79
2021/06/01 02:21:33;;;;;;;;;;;;;;;11.33;91.20;98789.84;1734079;82;20218;-80
2021/06/01 02:23:58;;;;;;;;;;;;;;;11.33;89.54;98789.39;1724001;82;20230;-79
2021/06/01 02:26:42;;;;;;;;;;;;;;;11.36;89.76;98794.97;1734743;81;20182;-79
2021/06/01 02:29:12;;;;;;;;;;;;;;;11.34;90.18;98790.27;1722275;83;20218;-79
2021/06/01 02:31:41;;;;;;;;;;;;;;;11.28;91.77;98795.22;1727502;83;20194;-79
2021/06/01 02:34:07;;;;;;;;;;;;;;;11.24;91.91;98793.62;1714808;83;20170;-80
2021/06/01 02:36:36;;;;;;;;;;;;;;;11.29;91.28;98795.59;1718012;83;20202;-80
2021/06/01 02:39:04;;;;;;;;;;;;;;;11.32;90.98;98787.70;1720442;82;20569;-80
2021/06/01 02:41:30;;;;;;;;;;;;;;;11.37;89.98;98790.14;1728626;83;20170;-79
2021/06/01 02:43:57;;;;;;;;;;;;;;;11.40;89.17;98787.88;1714136;83;20989;-80
2021/06/01 02:46:23;;;;;;;;;;;;;;;11.39;90.06;98788.80;1728997;82;20221;-79
2021/06/01 02:48:50;;;;;;;;;;;;;;;11.41;89.07;98789.14;1725788;82;20209;-79
2021/06/01 02:51:17;;;;;;;;;;;;;;;11.40;90.81;98785.28;1728905;83;20198;-79
2021/06/01 02:53:50;;;;;;;;;;;;;;;11.44;88.61;98786.88;1725355;83;20580;-81
2021/06/01 02:56:17;;;;;;;;;;;;;;;11.45;90.50;98789.89;1728832;82;20628;-80
2021/06/01 02:58:46;;;;;;;;;;;;;;;11.45;89.56;98792.50;1720103;83;20489;-80
2021/06/01 03:01:15;;;;;;;;;;;;;;;11.48;89.80;98789.34;1728745;83;20202;-79
2021/06/01 03:03:50;;;;;;;;;;;;;;;11.53;90.49;98793.09;1726362;83;20182;-80
2021/06/01 03:06:24;;;;;;;;;;;;;;;11.52;89.90;98790.94;1724847;83;20923;-81
2021/06/01 03:08:51;;;;;;;;;;;;;;;11.50;89.30;98778.89;1724607;83;20206;-83
2021/06/01 03:11:19;;;;;;;;;;;;;;;11.47;89.04;98788.93;1728177;82;20225;-79
2021/06/01 03:13:50;;;;;;;;;;;;;;;11.46;91.02;98788.55;1718163;83;20210;-79
2021/06/01 03:16:17;;;;;;;;;;;;;;;11.47;91.01;98794.59;1728316;82;20549;-81
2021/06/01 03:18:43;;;;;;;;;;;;;;;11.51;90.72;98787.92;1726578;83;20211;-81
2021/06/01 03:21:11;;;;;;;;;;;;;;;11.51;91.56;98793.59;1716210;82;20202;-79
2021/06/01 03:23:37;;;;;;;;;;;;;;;11.44;91.30;98783.84;1711769;82;20297;-79
2021/06/01 03:26:04;;;;;;;;;;;;;;;11.50;91.49;98794.51;1728335;83;20285;-81
2021/06/01 03:28:31;;;;;;;;;;;;;;;11.55;90.44;98795.19;1718906;82;20174;-80
2021/06/01 03:30:57;;;;;;;;;;;;;;;11.61;90.46;98799.34;1728559;83;20174;-80
2021/06/01 03:33:23;;;;;;;;;;;;;;;11.63;89.37;98797.08;1714897;83;20256;-80
2021/06/01 03:35:50;;;;;;;;;;;;;;;11.61;90.13;98794.97;1728245;83;20208;-79
2021/06/01 03:38:16;;;;;;;;;;;;;;;11.62;90.06;98801.90;1720251;83;20197;-79
2021/06/01 03:40:42;;;;;;;;;;;;;;;11.65;89.94;98803.08;1728261;83;20568;-79
2021/06/01 03:43:08;;;;;;;;;;;;;;;11.70;89.77;98800.34;1721107;83;20218;-81
2021/06/01 03:45:35;;;;;;;;;;;;;;;11.70;88.40;98797.27;1728295;83;20254;-80
2021/06/01 03:48:01;;;;;;;;;;;;;;;11.68;89.38;98786.52;1721324;82;20210;-79
2021/06/01 03:50:28;;;;;;;;;;;;;;;11.64;89.67;98787.08;1700933;83;20184;-79
2021/06/01 03:52:54;;;;;;;;;;;;;;;11.64;89.30;98793.58;1723134;83;20209;-79
2021/06/01 03:55:21;;;;;;;;;;;;;;;11.60;90.21;98795.02;1717895;83;20186;-79
2021/06/01 03:57:48;;;;;;;;;;;;;;;11.58;90.28;98800.30;1724667;83;20578;-80
2021/06/01 04:00:21;;;;;;;;;;;;;;;11.62;89.88;98792.78;1727617;83;20206;-80
2021/06/01 04:02:48;;;;;;;;;;;;;;;11.61;89.67;98787.63;1720423;83;20182;-79
2021/06/01 04:05:14;;;;;;;;;;;;;;;11.65;91.13;98797.87;1754100;80;20244;-81
2021/06/01 04:07:41;;;;;;;;;;;;;;;11.67;91.31;98801.27;1754889;80;20171;-82
2021/06/01 04:10:08;;;;;;;;;;;;;;;11.78;89.64;98797.44;1755996;80;20193;-82
2021/06/01 04:12:34;;;;;;;;;;;;;;;11.82;91.04;98806.88;1757372;80;20188;-83
2021/06/01 04:15:00;;;;;;;;;;;;;;;11.88;90.56;98808.81;1756648;80;20197;-81
2021/06/01 04:17:27;;;;;;;;;;;;;;;12.00;90.02;98798.44;1750914;80;20578;-80
2021/06/01 04:19:53;;;;;;;;;;;;;;;12.11;90.55;98809.31;1755677;81;20173;-80
2021/06/01 04:22:20;;;;;;;;;;;;;;;12.18;89.52;98811.72;1756143;81;20197;-80
2021/06/01 04:24:46;;;;;;;;;;;;;;;12.31;88.79;98812.95;1754520;81;20181;-79
2021/06/01 04:27:12;;;;;;;;;;;;;;;12.40;88.22;98817.00;1757479;80;20175;-78
2021/06/01 04:29:39;;;;;;;;;;;;;;;12.38;87.66;98817.05;1748645;80;20178;-79
2021/06/01 04:32:06;;;;;;;;;;;;;;;12.38;88.06;98820.96;1745982;82;20257;-79
2021/06/01 04:34:32;;;;;;;;;;;;;;;12.42;87.77;98810.81;1739568;82;20193;-79
2021/06/01 04:36:58;;;;;;;;;;;;;;;12.36;87.53;98817.56;1745833;81;20211;-79
2021/06/01 04:39:25;;;;;;;;;;;;;;;12.43;86.40;98823.39;1736878;81;20200;-78
2021/06/01 04:41:51;;;;;;;;;;;;;;;12.40;86.26;98820.45;1736745;82;20193;-79
2021/06/01 04:44:18;;;;;;;;;;;;;;;12.29;86.74;98818.68;1736872;82;20206;-81
2021/06/01 04:46:44;;;;;;;;;;;;;;;12.27;87.43;98816.58;1748190;82;20166;-78
2021/06/01 04:49:10;;;;;;;;;;;;;;;12.30;86.95;98818.63;1746582;82;20181;-78
2021/06/01 04:51:37;;;;;;;;;;;;;;;12.32;88.17;98822.48;1747869;82;20189;-79
2021/06/01 04:54:03;;;;;;;;;;;;;;;12.35;87.66;98827.58;1745525;82;20714;-79
2021/06/01 04:56:30;;;;;;;;;;;;;;;12.37;87.97;98830.13;1747201;82;20179;-81
2021/06/01 04:58:56;;;;;;;;;;;;;;;12.44;86.78;98827.25;1730948;81;20212;-79
2021/06/01 05:01:24;;;;;;;;;;;;;;;12.39;87.18;98820.03;1747495;81;20192;-79
2021/06/01 05:03:50;;;;;;;;;;;;;;;12.43;87.47;98828.14;1742675;81;20602;-80
2021/06/01 05:06:17;;;;;;;;;;;;;;;12.51;87.69;98827.86;1727765;82;20273;-79
2021/06/01 05:08:43;;;;;;;;;;;;;;;12.63;86.56;98831.31;1744431;82;20185;-80
2021/06/01 05:11:10;;;;;;;;;;;;;;;12.71;87.24;98837.54;1749305;82;20261;-79
2021/06/01 05:13:36;;;;;;;;;;;;;;;12.83;87.12;98841.02;1743539;81;20210;-79
2021/06/01 05:16:03;;;;;;;;;;;;;;;13.02;85.83;98838.98;1749180;82;20186;-79
2021/06/01 05:18:30;;;;;;;;;;;;;;;13.08;86.77;98847.88;1734458;82;20197;-79
2021/06/01 05:20:56;;;;;;;;;;;;;;;13.24;86.26;98846.81;1743841;82;20209;-81
2021/06/01 05:23:22;;;;;;;;;;;;;;;13.22;84.93;98842.95;1744398;81;20341;-79
2021/06/01 05:25:49;;;;;;;;;;;;;;;13.30;84.60;98853.13;1738368;81;20182;-79
2021/06/01 05:28:15;;;;;;;;;;;;;;;13.40;84.17;98853.61;1730180;82;20188;-79
2021/06/01 05:30:49;;;;;;;;;;;;;;;13.29;83.29;98864.03;1748997;81;20174;-79
2021/06/01 05:33:12;;;;;;;;;;;;;;;13.29;82.68;98860.13;1742546;82;20204;-80
2021/06/01 05:35:53;;;;;;;;;;;;;;;13.51;83.48;98856.64;1750121;80;20215;-80
2021/06/01 05:38:22;;;;;;;;;;;;;;;13.57;83.33;98855.52;1742750;80;20197;-83
2021/06/01 05:40:48;;;;;;;;;;;;;;;13.73;82.52;98861.83;1750405;80;20193;-79
2021/06/01 05:43:14;;;;;;;;;;;;;;;13.68;82.13;98855.47;1747329;80;20225;-80
2021/06/01 05:45:41;;;;;;;;;;;;;;;13.67;82.18;98855.56;1748879;80;20204;-80
2021/06/01 05:48:08;;;;;;;;;;;;;;;13.66;82.02;98865.14;1743808;80;20210;-81
2021/06/01 05:50:35;;;;;;;;;;;;;;;13.68;81.36;98865.92;1745062;80;20204;-83
2021/06/01 05:53:02;;;;;;;;;;;;;;;13.79;81.71;98862.88;1744437;80;20205;-84
2021/06/01 05:55:28;;;;;;;;;;;;;;;13.81;81.58;98858.91;1752647;80;20185;-85
2021/06/01 05:57:55;;;;;;;;;;;;;;;13.76;81.29;98864.30;1750263;80;20204;-80
2021/06/01 06:00:22;;;;;;;;;;;;;;;13.64;80.68;98862.20;1757090;80;20572;-80
2021/06/01 06:02:49;;;;;;;;;;;;;;;13.70;81.33;98861.48;1750060;80;20181;-80
2021/06/01 06:05:16;;;;;;;;;;;;;;;13.58;80.66;98863.30;1746485;81;20181;-80
2021/06/01 06:07:42;;;;;;;;;;;;;;;13.56;81.44;98866.43;1735200;80;20165;-80
2021/06/01 06:10:10;;;;;;;;;;;;;;;13.51;81.48;98873.63;1754178;80;20608;-79
2021/06/01 06:12:37;;;;;;;;;;;;;;;13.46;81.54;98869.03;1737978;80;20176;-80
2021/06/01 06:15:06;;;;;;;;;;;;;;;13.41;80.87;98873.58;1741614;81;20992;-83
2021/06/01 06:17:40;;;;;;;;;;;;;;;13.30;81.75;98881.38;1721524;83;20844;-80
2021/06/01 06:20:07;;;;;;;;;;;;;;;13.28;81.29;98875.34;1711782;82;20196;-80
2021/06/01 06:22:35;;;;;;;;;;;;;;;13.25;81.62;98876.78;1717843;82;20239;-80
2021/06/01 06:25:04;;;;;;;;;;;;;;;13.28;81.25;98880.56;1742790;82;20249;-80
2021/06/01 06:27:30;;;;;;;;;;;;;;;13.24;81.85;98883.36;1737329;82;20209;-78
2021/06/01 06:29:57;;;;;;;;;;;;;;;13.24;81.84;98882.90;1747738;82;20496;-81
2021/06/01 06:32:23;;;;;;;;;;;;;;;13.28;82.75;98875.34;1736415;82;20185;-83
2021/06/01 06:34:50;;;;;;;;;;;;;;;13.31;82.84;98886.17;1737992;82;20185;-80
2021/06/01 06:37:17;;;;;;;;;;;;;;;13.47;82.54;98882.50;1737278;82;20199;-80
2021/06/01 06:39:43;;;;;;;;;;;;;;;13.52;82.32;98876.61;1750507;81;20555;-80
2021/06/01 06:42:10;;;;;;;;;;;;;;;13.58;81.53;98885.50;1748033;82;20213;-79
2021/06/01 06:44:37;;;;;;;;;;;;;;;13.52;81.16;98875.30;1740133;82;20161;-82
2021/06/01 06:49:33;;;;;;;;;;;;;;;13.64;80.75;98875.27;1744236;82;20217;-78
2021/06/01 06:52:01;;;;;;;;;;;;;;;13.68;80.43;98880.28;1749437;82;20185;-81
2021/06/01 06:54:29;;;;;;;;;;;;;;;13.60;80.94;98875.84;1714893;83;20201;-80
2021/06/01 06:56:55;;;;;;;;;;;;;;;13.60;80.44;98888.05;1764923;80;20176;-80
2021/06/01 06:59:21;;;;;;;;;;;;;;;13.57;81.69;98877.72;1750604;80;21013;-79
2021/06/01 07:01:48;;;;;;;;;;;;;;;13.60;82.04;98874.53;1747830;80;20185;-79
2021/06/01 07:04:14;;;;;;;;;;;;;;;13.61;81.40;98869.72;1732479;80;20184;-80
2021/06/01 07:06:40;;;;;;;;;;;;;;;13.63;81.30;98875.73;1743144;80;20217;-81
2021/06/01 07:09:07;;;;;;;;;;;;;;;13.69;81.13;98873.33;1747644;80;20245;-80
2021/06/01 07:11:34;;;;;;;;;;;;;;;13.70;81.22;98875.01;1742049;80;20319;-80
2021/06/01 07:14:11;;;;;;;;;;;;;;;13.75;81.47;98878.73;1737050;80;20256;-81
2021/06/01 07:16:38;;;;;;;;;;;;;;;13.82;80.68;98877.57;1702365;82;21072;-80
2021/06/01 07:19:05;;;;;;;;;;;;;;;13.71;81.53;98877.56;1702662;82;20201;-82
2021/06/01 07:21:31;;;;;;;;;;;;;;;13.83;80.62;98880.59;1724667;82;20591;-82
2021/06/01 07:23:58;;;;;;;;;;;;;;;13.87;80.70;98882.16;1727360;82;20233;-82
2021/06/01 07:26:24;;;;;;;;;;;;;;;13.80;80.79;98882.85;1725784;82;20285;-82
2021/06/01 07:28:52;;;;;;;;;;;;;;;13.96;80.22;98885.67;1760350;80;20196;-80
2021/06/01 07:31:18;;;;;;;;;;;;;;;14.02;79.21;98891.10;1755367;80;20181;-80
2021/06/01 07:33:46;;;;;;;;;;;;;;;14.04;78.76;98887.50;1746602;80;20206;-81
2021/06/01 07:36:12;;;;;;;;;;;;;;;14.10;79.11;98891.16;1738136;80;20233;-80
2021/06/01 07:38:39;;;;;;;;;;;;;;;14.17;79.54;98895.69;1742145;80;20268;-80
2021/06/01 07:41:06;;;;;;;;;;;;;;;14.36;79.19;98884.42;1744365;80;20189;-79
2021/06/01 07:43:33;;;;;;;;;;;;;;;14.55;78.26;98885.78;1746832;80;20190;-80
2021/06/01 07:46:02;;;;;;;;;;;;;;;14.77;76.27;98887.84;1747113;80;20186;-80
2021/06/01 07:48:28;;;;;;;;;;;;;;;14.94;77.23;98887.52;1743080;80;20213;-81
2021/06/01 07:50:54;;;;;;;;;;;;;;;14.97;75.74;98887.39;1747548;81;20201;-80
2021/06/01 07:53:20;;;;;;;;;;;;;;;15.05;76.15;98891.34;1745558;80;20182;-79
2021/06/01 07:55:46;;;;;;;;;;;;;;;15.08;74.86;98891.20;1744310;80;20257;-80
2021/06/01 07:58:13;;;;;;;;;;;;;;;15.21;74.44;98894.08;1734009;80;20536;-80
2021/06/01 08:00:39;;;;;;;;;;;;;;;15.38;74.01;98893.73;1754257;80;20205;-82
2021/06/01 08:03:06;;;;;;;;;;;;;;;15.48;71.93;98901.56;1747064;80;20177;-81
2021/06/01 08:05:32;;;;;;;;;;;;;;;15.59;72.98;98882.22;1748808;80;20871;-80
2021/06/01 08:07:58;;;;;;;;;;;;;;;15.63;72.14;98891.62;1735714;80;20201;-80
2021/06/01 08:10:27;;;;;;;;;;;;;;;15.89;72.64;98898.70;1747690;80;20184;-80
2021/06/01 08:12:54;;;;;;;;;;;;;;;15.99;70.58;98897.30;1736944;80;20516;-78
2021/06/01 08:15:23;;;;;;;;;;;;;;;16.13;71.04;98895.77;1746655;80;20541;-80
2021/06/01 08:17:53;;;;;;;;;;;;;;;16.28;70.68;98901.55;1729622;80;20207;-81
2021/06/01 08:20:29;;;;;;;;;;;;;;;16.35;68.01;98894.20;1748800;80;20178;-80
2021/06/01 08:22:45;;;;;;;;;;;;;;;16.54;69.80;98900.19;1744318;80;20236;-80
2021/06/01 08:25:12;;;;;;;;;;;;;;;16.64;67.68;98898.77;1739911;80;20184;-80
2021/06/01 08:27:38;;;;;;;;;;;;;;;16.69;66.39;98894.57;1734905;80;20196;-81
2021/06/01 08:30:07;;;;;;;;;;;;;;;16.85;65.99;98906.00;1753383;80;20199;-80
2021/06/01 08:32:33;;;;;;;;;;;;;;;17.07;68.04;98904.37;1727024;82;20209;-79
2021/06/01 08:34:59;;;;;;;;;;;;;;;17.18;67.10;98904.24;1727619;82;20595;-81
2021/06/01 08:37:26;;;;;;;;;;;;;;;17.26;64.69;98913.86;1720645;82;20210;-81
2021/06/01 08:39:52;;;;;;;;;;;;;;;17.36;67.21;98902.38;1700773;82;20179;-79
2021/06/01 08:42:18;;;;;;;;;;;;;;;17.28;65.23;98903.63;1723174;82;20206;-81
2021/06/01 08:44:50;;;;;;;;;;;;;;;17.51;67.57;98909.40;1729118;82;20195;-81
2021/06/01 08:47:20;;;;;;;;;;;;;;;17.65;67.12;98902.05;1724358;81;20198;-80
2021/06/01 08:49:47;;;;;;;;;;;;;;;17.71;66.40;98908.27;1722047;81;20176;-80
2021/06/01 08:52:15;;;;;;;;;;;;;;;17.70;64.92;98915.28;1718181;83;20192;-80
2021/06/01 08:54:46;;;;;;;;;;;;;;;17.81;64.01;98909.90;1724794;81;20178;-81
2021/06/01 08:57:12;;;;;;;;;;;;;;;17.87;63.20;98901.20;1718459;82;20190;-81
2021/06/01 08:59:40;;;;;;;;;;;;;;;17.75;62.68;98896.64;1714397;82;20349;-79
2021/06/01 09:02:07;;;;;;;;;;;;;;;17.95;64.81;98898.61;1727361;83;20182;-80
2021/06/01 09:04:54;;;;;;;;;;;;;;;18.18;61.77;98905.13;1718192;83;20197;-80
2021/06/01 09:07:34;;;;;;;;;;;;;;;18.49;60.42;98893.14;1721920;81;20186;-80
2021/06/01 09:10:11;;;;;;;;;;;;;;;18.59;60.61;98892.11;1671621;84;20182;-80
2021/06/01 09:12:34;;;;;;;;;;;;;;;18.68;61.13;98886.29;1726114;82;20223;-80
2021/06/01 09:22:58;;;;;;;;;;;;;;;18.72;58.96;98883.00;1724632;83;20202;-79
2021/06/01 09:25:35;;;;;;;;;;;;;;;18.59;57.56;98883.38;1725489;82;20206;-79
2021/06/01 09:27:59;;;;;;;;;;;;;;;18.75;59.36;98886.75;1731095;81;20178;-80
2021/06/01 09:30:43;;;;;;;;;;;;;;;18.95;60.83;98885.53;1726333;81;20213;-80
2021/06/01 09:33:16;;;;;;;;;;;;;;;18.83;57.88;98888.45;1745617;82;20209;-80
2021/06/01 09:36:03;;;;;;;;;;;;;;;18.45;57.47;98889.00;1752174;80;20182;-84
2021/06/01 09:38:33;;;;;;;;;;;;;;;18.43;57.21;98896.15;1743150;82;20201;-79
2021/06/01 09:41:18;;;;;;;;;;;;;;;18.33;58.79;98892.38;1725646;82;20199;-80
2021/06/01 09:43:55;;;;;;;;;;;;;;;18.32;59.91;98895.94;1713122;82;20202;-80
2021/06/01 09:46:30;;;;;;;;;;;;;;;18.23;59.97;98898.66;1706325;83;21035;-79
2021/06/01 09:49:15;;;;;;;;;;;;;;;18.16;61.05;98903.06;1744484;80;20314;-80
2021/06/01 09:51:49;;;;;;;;;;;;;;;17.97;63.05;98902.00;1729032;81;20193;-79
2021/06/01 09:54:35;;;;;;;;;;;;;;;17.88;64.05;98902.05;1744082;80;20225;-79
2021/06/01 09:57:04;;;;;;;;;;;;;;;17.66;63.71;98904.56;1752189;80;20197;-78
2021/06/01 09:59:31;;;;;;;;;;;;;;;17.51;65.66;98898.89;1742466;81;20225;-78
2021/06/01 10:01:57;;;;;;;;;;;;;;;17.43;64.56;98901.95;1752417;80;20213;-78
2021/06/01 10:04:27;;;;;;;;;;;;;;;17.34;62.47;98897.67;1740551;81;20620;-78
2021/06/01 10:06:55;;;;;;;;;;;;;;;17.28;64.08;98893.13;1751959;81;20221;-81
2021/06/01 10:09:21;;;;;;;;;;;;;;;17.29;67.16;98886.95;1720697;81;20247;-79
2021/06/01 10:11:56;;;;;;;;;;;;;;;17.27;66.02;98884.04;1759299;80;20564;-79
2021/06/01 10:14:23;;;;;;;;;;;;;;;17.24;67.30;98892.08;1733827;80;20176;-79
2021/06/01 10:16:51;;;;;;;;;;;;;;;17.14;64.91;98886.48;1719207;82;20183;-82
2021/06/01 10:19:17;;;;;;;;;;;;;;;16.97;60.84;98886.55;1722732;83;20202;-79
2021/06/01 10:21:44;;;;;;;;;;;;;;;17.06;63.77;98880.81;1729005;82;20505;-79
2021/06/01 10:24:15;;;;;;;;;;;;;;;17.05;56.85;98883.04;1719413;83;20194;-80
2021/06/01 10:26:42;;;;;;;;;;;;;;;17.19;60.01;98886.22;1711497;82;20233;-79
2021/06/01 10:29:08;;;;;;;;;;;;;;;17.30;59.48;98889.11;1712858;83;20224;-79
2021/06/01 10:31:36;;;;;;;;;;;;;;;17.32;61.68;98885.92;1725834;81;20274;-79
2021/06/01 10:34:04;;;;;;;;;;;;;;;17.27;60.70;98882.25;1709366;83;20624;-79
2021/06/01 10:44:56;;;;;;;;;;;;;;;17.08;58.75;98889.45;1726783;82;20242;-79
2021/06/01 10:50:24;;;;;;;;;;;;;;;16.68;62.38;98894.20;1705849;83;20244;-81
2021/06/01 10:53:21;;;;;;;;;;;;;;;16.57;62.55;98891.30;1717047;81;20194;-80
2021/06/01 10:56:01;;;;;;;;;;;;;;;16.22;65.30;98886.13;1713197;83;20206;-82
2021/06/01 10:58:43;;;;;;;;;;;;;;;16.06;66.52;98888.22;1704743;82;20196;-79
2021/06/01 11:04:26;;;;;;;;;;;;;;;16.07;66.16;98884.65;1715182;83;20206;-80
2021/06/01 11:09:47;;;;;;;;;;;;;;;16.03;64.92;98891.45;1717652;83;20178;-80
2021/06/01 11:12:23;;;;;;;;;;;;;;;16.25;64.21;98891.20;1717613;83;20186;-81
2021/06/01 11:14:50;;;;;;;;;;;;;;;16.45;63.10;98882.29;1739903;82;20205;-80
2021/06/01 11:17:40;;;;;;;;;;;;;;;16.62;62.55;98881.41;1749682;80;20610;-79
2021/06/01 11:20:15;;;;;;;;;;;;;;;16.81;62.48;98883.88;1742920;81;20608;-79
2021/06/01 11:23:00;;;;;;;;;;;;;;;17.14;62.47;98882.55;1749071;82;20247;-80
2021/06/01 11:33:36;;;;;;;;;;;;;;;18.33;60.41;98871.80;1745701;82;20284;-79
2021/06/01 11:36:04;;;;;;;;;;;;;;;18.40;55.73;98872.66;1717255;83;20187;-79
2021/06/01 11:42:46;;;;;;;;;;;;;;;18.72;59.86;98880.37;1741733;81;20217;-80
2021/06/01 11:43:48;;;;;;;;;;;;;;;18.87;59.76;98874.63;1751865;80;20200;-80
2021/06/01 11:51:25;;;;;;;;;;;;;;;19.31;59.65;98893.84;1754005;82;20207;-80
2021/06/01 11:54:08;;;;;;;;;;;;;;;19.51;59.34;98893.39;1752811;81;20175;-81
2021/06/01 12:17:22;;;;;;;;;;;;;;;17.48;59.69;98930.59;1729539;82;20194;-79
2021/06/01 12:19:01;;;;;;;;;;;;;;;16.77;61.19;98927.85;1701251;82;20228;-81
2021/06/01 12:21:37;;;;;;;;;;;;;;;16.09;65.00;98922.60;1713615;83;20570;-81
2021/06/01 12:24:16;;;;;;;;;;;;;;;15.83;66.48;98910.80;1732906;82;20277;-80
2021/06/01 12:27:15;;;;;;;;;;;;;;;15.43;66.06;98910.09;1728175;82;20233;-79
2021/06/01 12:32:11;;;;;;;;;;;;;;;15.11;70.04;98900.68;1731482;81;20567;-79
2021/06/01 12:41:41;;;;;;;;;;;;;;;14.73;71.20;98895.44;1715468;82;20200;-79
2021/06/01 12:45:36;;;;;;;;;;;;;;;15.28;70.75;98898.59;1714717;82;20282;-79
2021/06/01 13:19:21;;;;;;;;;;;;;;;17.75;64.83;98912.89;1688082;84;20211;-80
2021/06/01 13:21:48;;;;;;;;;;;;;;;18.12;65.10;98912.91;1726014;83;20561;-80
2021/06/01 13:24:29;;;;;;;;;;;;;;;18.41;61.23;98911.66;1721229;83;20190;-81
2021/06/01 13:32:27;;;;;;;;;;;;;;;18.89;59.73;98913.58;1700734;83;20190;-80
2021/06/01 13:37:58;;;;;;;;;;;;;;;18.66;54.30;98926.35;1707555;83;20198;-80
2021/06/01 13:46:05;;;;;;;;;;;;;;;18.52;55.29;98932.90;1725329;83;20536;-79
2021/06/01 13:56:28;;;;;;;;;;;;;;;18.33;55.66;98929.70;1712844;83;20186;-80
2021/06/01 13:59:08;;;;;;;;;;;;;;;18.07;54.82;98932.92;1721267;82;20176;-78
2021/06/01 14:02:13;;;;;;;;;;;;;;;18.09;56.18;98934.16;1723945;82;20170;-79
2021/06/01 14:29:42;;;;;;;;;;;;;;;16.97;60.15;98969.27;1722387;83;20174;-82
2021/06/01 15:50:21;;;;;;;;;;;;;;;14.78;72.03;98991.61;1724999;82;20197;-80
2021/06/01 15:53:19;;;;;;;;;;;;;;;14.88;72.07;98991.59;1713096;83;20170;-79
2021/06/01 16:11:16;;;;;;;;;;;;;;;14.99;71.83;98996.80;1689285;83;20520;-80
2021/06/01 16:22:58;;;;;;;;;;;;;;;15.62;65.79;98995.23;1732378;82;20195;-79
2021/06/01 16:42:18;;;;;;;;;;;;;;;16.14;67.21;99012.41;1733122;82;20198;-80
2021/06/01 17:04:04;;;;;;;;;;;;;;;16.12;67.87;99025.21;1730567;82;20230;-79
2021/06/01 17:06:29;;;;;;;;;;;;;;;16.04;68.44;99022.48;1728072;81;20529;-79
2021/06/01 17:11:30;;;;;;;;;;;;;;;15.69;68.34;99024.98;1739511;82;20217;-80
2021/06/01 17:13:59;;;;;;;;;;;;;;;15.56;69.61;99033.48;1733622;82;20643;-79
2021/06/01 17:16:40;;;;;;;;;;;;;;;15.55;69.66;99030.49;1730427;81;20214;-79
2021/06/01 17:21:55;;;;;;;;;;;;;;;15.34;70.20;99032.31;1731038;82;20572;-79
2021/06/01 17:30:23;;;;;;;;;;;;;;;15.22;71.04;99028.48;1731691;82;20249;-80
2021/06/01 17:34:36;;;;;;;;;;;;;;;15.05;72.95;99037.95;1738407;82;20201;-79
2021/06/01 17:35:03;;;;;;;;;;;;;;;15.02;73.87;99035.92;1740073;82;20578;-79
2021/06/01 17:37:29;;;;;;;;;;;;;;;15.02;73.25;99041.16;1754694;82;20181;-79
2021/06/01 17:39:55;;;;;;;;;;;;;;;14.97;73.25;99049.22;1749702;82;20544;-79
2021/06/01 17:42:25;;;;;;;;;;;;;;;14.87;74.10;99051.38;1755114;82;20177;-82
2021/06/01 17:44:53;;;;;;;;;;;;;;;14.86;71.94;99052.32;1745619;82;20201;-80
2021/06/01 17:47:22;;;;;;;;;;;;;;;14.71;73.80;99050.35;1749800;82;20197;-81
2021/06/01 17:49:50;;;;;;;;;;;;;;;14.67;74.12;99064.48;1745521;82;20185;-79
2021/06/01 17:52:22;;;;;;;;;;;;;;;14.63;74.74;99066.84;1755284;82;20201;-82
2021/06/01 17:54:51;;;;;;;;;;;;;;;14.53;74.37;99070.26;1750806;82;20189;-79
2021/06/01 17:57:20;;;;;;;;;;;;;;;14.45;74.35;99067.11;1755379;82;20201;-80
2021/06/01 17:59:47;;;;;;;;;;;;;;;14.40;74.68;99070.36;1746226;82;20875;-82
2021/06/01 18:02:14;;;;;;;;;;;;;;;14.36;75.31;99070.94;1754898;82;20623;-79
2021/06/01 18:04:46;;;;;;;;;;;;;;;14.22;77.33;99073.27;1737536;82;20239;-79
2021/06/01 18:07:18;;;;;;;;;;;;;;;14.19;76.94;99071.64;1754863;82;20540;-81